Terminal Aerodrome Forecast
Issued by NWS

Home | Current Version | Previous Version | Text Only | Print | Product List | Glossary On
Versions: 1 2 3 4 5 6 7 8 9 10 11 12 13
687
FTUS44 KLZK 242336
TAFHRO
TAF
KHRO 242336Z 2500/2524 16006KT P6SM VCTS SCT050CB BKN150
     FM250200 33005KT P6SM SCT025 BKN050
     FM250600 VRB04KT P6SM BKN250
     FM251400 33005KT P6SM SCT030 BKN080
     FM251800 33005KT P6SM VCTS SCT030CB OVC060 PROB30 2520/2524 4SM
      TSRA BR BKN030CB=

USA.gov is the U.S. government's official web portal to all federal, state and local government web resources and services.